Time;durP1;ratioP1;P1;durP2;ratioP2;P2;SDS_P1;SDS_P2;PMS_P1;PMS_P2;Temp;Humidity;BMP_temperature;BMP_pressure;BME280_temperature;BME280_humidity;BME280_pressure;Samples;Min_cycle;Max_cycle;Signal;HPM_P1;HPM_P2
2022/02/28 00:00:17;;;;;;;8.13;3.28;;;5.90;99.90;;;;;;5162533;22;20024;-67
2022/02/28 00:02:18;;;;;;;7.07;3.28;;;5.90;99.90;;;;;;5162955;22;20078;-66
2022/02/28 00:04:21;;;;;;;7.40;3.10;;;5.80;99.90;;;;;;5164862;22;20031;-66
2022/02/28 00:06:21;;;;;;;;;;;5.90;99.90;;;;;;5166099;22;20336;-66
2022/02/28 00:08:22;;;;;;;6.22;2.95;;;5.90;99.90;;;;;;5164812;22;19908;-66
2022/02/28 00:10:23;;;;;;;5.05;2.90;;;5.90;99.90;;;;;;5165475;22;20032;-66
2022/02/28 00:12:24;;;;;;;7.85;3.17;;;5.90;99.90;;;;;;5166572;22;20008;-65
2022/02/28 00:14:24;;;;;;;9.13;3.20;;;5.90;99.90;;;;;;5166071;22;20008;-65
2022/02/28 00:16:25;;;;;;;7.85;2.97;;;5.80;99.90;;;;;;5165215;22;20508;-66
2022/02/28 00:18:26;;;;;;;9.18;2.90;;;5.90;99.90;;;;;;5166113;22;20012;-65
2022/02/28 00:20:26;;;;;;;7.20;3.05;;;5.80;99.90;;;;;;5165100;22;20027;-65
2022/02/28 00:22:27;;;;;;;6.40;3.28;;;5.80;99.90;;;;;;5165925;22;20012;-66
2022/02/28 00:24:27;;;;;;;7.18;3.10;;;5.80;99.90;;;;;;5166059;22;20007;-66
2022/02/28 00:26:28;;;;;;;5.85;2.92;;;5.80;99.90;;;;;;5165047;22;20087;-65
2022/02/28 00:28:29;;;;;;;6.68;3.00;;;5.80;99.90;;;;;;5165558;22;20031;-65
2022/02/28 00:30:29;;;;;;;7.30;3.22;;;5.80;99.90;;;;;;5164711;22;20024;-66
2022/02/28 00:32:30;;;;;;;5.43;2.85;;;5.80;99.90;;;;;;5166143;22;20070;-66
2022/02/28 00:34:30;;;;;;;8.23;3.03;;;5.90;99.90;;;;;;5165664;22;20019;-65
2022/02/28 00:36:31;;;;;;;7.38;3.10;;;5.80;99.90;;;;;;5164922;22;20019;-65
2022/02/28 00:38:33;;;;;;;5.38;2.80;;;5.90;99.90;;;;;;5165409;22;20424;-65
2022/02/28 00:40:34;;;;;;;6.82;3.30;;;5.80;99.90;;;;;;5164864;22;20020;-65
2022/02/28 00:42:35;;;;;;;5.63;2.95;;;5.80;99.90;;;;;;5165053;22;20115;-65
2022/02/28 00:44:36;;;;;;;8.50;3.47;;;5.80;99.90;;;;;;5165392;22;20435;-66
2022/02/28 00:46:36;;;;;;;6.13;3.28;;;5.70;99.90;;;;;;5164450;22;20008;-65
2022/02/28 00:48:37;;;;;;;9.02;3.35;;;5.70;99.90;;;;;;5165261;22;20012;-66
2022/02/28 00:50:37;;;;;;;7.78;3.78;;;5.70;99.90;;;;;;5164153;22;20020;-66
2022/02/28 00:52:40;;;;;;;7.55;3.42;;;5.60;99.90;;;;;;5163137;22;20447;-66
2022/02/28 00:54:41;;;;;;;;;;;5.70;99.90;;;;;;5163937;22;20084;-66
2022/02/28 00:56:41;;;;;;;6.18;3.30;;;5.70;99.90;;;;;;5156533;22;19911;-65
2022/02/28 00:58:42;;;;;;;6.70;3.40;;;5.60;99.90;;;;;;5164617;22;20009;-65
2022/02/28 01:00:42;;;;;;;8.38;3.45;;;5.50;99.90;;;;;;5162102;22;20016;-65
2022/02/28 01:02:44;;;;;;;9.10;3.42;;;5.50;99.90;;;;;;5163963;22;20509;-65
2022/02/28 01:04:45;;;;;;;8.25;3.70;;;5.50;99.90;;;;;;5163781;22;20015;-65
2022/02/28 01:06:46;;;;;;;6.82;3.47;;;5.50;99.90;;;;;;5162467;22;20004;-67
2022/02/28 01:08:47;;;;;;;8.23;3.20;;;5.50;99.90;;;;;;5163161;22;20004;-67
2022/02/28 01:10:48;;;;;;;6.55;3.22;;;5.50;99.90;;;;;;5164595;22;20397;-66
2022/02/28 01:12:50;;;;;;;6.55;2.92;;;5.50;99.90;;;;;;5165589;22;20016;-65
2022/02/28 01:14:51;;;;;;;7.53;3.55;;;5.60;99.90;;;;;;5165782;22;20142;-65
2022/02/28 01:16:52;;;;;;;9.35;3.92;;;5.50;99.90;;;;;;5163994;22;20020;-66
2022/02/28 01:18:52;;;;;;;7.63;3.00;;;5.50;99.90;;;;;;5164502;22;20008;-66
2022/02/28 01:20:53;;;;;;;8.20;3.83;;;5.50;99.90;;;;;;5164210;22;20039;-66
2022/02/28 01:22:53;;;;;;;7.88;3.42;;;5.50;99.90;;;;;;5165626;22;20013;-67
2022/02/28 01:24:54;;;;;;;6.40;3.40;;;5.40;99.90;;;;;;5165172;22;20005;-65
2022/02/28 01:26:55;;;;;;;8.15;3.58;;;5.40;99.90;;;;;;5164605;22;20012;-66
2022/02/28 01:28:55;;;;;;;7.18;3.40;;;5.40;99.90;;;;;;5151718;22;20004;-66
2022/02/28 01:30:56;;;;;;;7.40;3.20;;;5.40;99.90;;;;;;5164292;22;20023;-65
2022/02/28 01:32:56;;;;;;;6.20;2.97;;;5.50;99.90;;;;;;5164686;22;20015;-65
2022/02/28 01:34:57;;;;;;;7.53;3.42;;;5.50;99.90;;;;;;5165601;22;20008;-65
2022/02/28 01:36:58;;;;;;;5.32;3.20;;;5.40;99.90;;;;;;5163858;22;20079;-66
2022/02/28 01:39:00;;;;;;;6.07;3.10;;;5.40;99.90;;;;;;5165343;22;20057;-65
2022/02/28 01:41:00;;;;;;;6.68;3.05;;;5.40;99.90;;;;;;5164501;22;20075;-66
2022/02/28 01:43:02;;;;;;;6.05;2.92;;;5.40;99.90;;;;;;5165304;22;20444;-65
2022/02/28 01:45:03;;;;;;;6.20;2.95;;;5.40;99.90;;;;;;5164722;22;20004;-66
2022/02/28 01:47:04;;;;;;;8.30;3.58;;;5.40;99.90;;;;;;5164412;22;20032;-65
2022/02/28 01:49:06;;;;;;;7.18;3.20;;;5.40;99.90;;;;;;5164882;22;20383;-66
2022/02/28 01:51:06;;;;;;;5.55;3.17;;;5.40;99.90;;;;;;5163194;22;20020;-65
2022/02/28 01:53:07;;;;;;;6.82;3.35;;;5.40;99.90;;;;;;5162462;22;20019;-66
2022/02/28 01:55:09;;;;;;;5.60;3.00;;;5.40;99.90;;;;;;5163669;22;20023;-69
2022/02/28 01:57:10;;;;;;;7.55;3.08;;;5.40;99.90;;;;;;5164516;22;20012;-65
2022/02/28 01:59:10;;;;;;;8.25;3.42;;;5.40;99.90;;;;;;5164208;22;20075;-65
2022/02/28 02:01:11;;;;;;;5.75;3.15;;;5.40;99.90;;;;;;5163911;22;20058;-65
2022/02/28 02:03:11;;;;;;;9.07;3.92;;;5.30;99.90;;;;;;5164625;22;20075;-66
2022/02/28 02:05:12;;;;;;;8.25;3.28;;;5.30;99.90;;;;;;5163202;22;20000;-66
2022/02/28 02:07:13;;;;;;;9.20;3.95;;;5.30;99.90;;;;;;5163568;22;20039;-65
2022/02/28 02:09:16;;;;;;;5.35;2.70;;;5.30;99.90;;;;;;5164973;22;20027;-65
2022/02/28 02:11:18;;;;;;;;;;;5.30;99.90;;;;;;5164097;22;20016;-65
2022/02/28 02:13:19;;;;;;;8.15;3.40;;;5.30;99.90;;;;;;5163089;22;20355;-66
2022/02/28 02:15:20;;;;;;;8.75;3.65;;;5.30;99.90;;;;;;5165150;22;20012;-66
2022/02/28 02:17:20;;;;;;;9.38;3.80;;;5.20;99.90;;;;;;5166178;22;20023;-66
2022/02/28 02:19:21;;;;;;;6.63;3.08;;;5.20;99.90;;;;;;5165594;22;20395;-66
2022/02/28 02:21:22;;;;;;;6.82;3.17;;;5.20;99.90;;;;;;5164805;22;20016;-66
2022/02/28 02:23:24;;;;;;;8.75;3.67;;;5.20;99.90;;;;;;5165277;22;20495;-66
2022/02/28 02:25:25;;;;;;;5.13;3.10;;;5.20;99.90;;;;;;5164894;22;20016;-66
2022/02/28 02:27:27;;;;;;;7.57;3.65;;;5.20;99.90;;;;;;5165484;22;20352;-66
2022/02/28 02:32:24;;;;;;;7.18;3.40;;;5.30;99.90;;;;;;5162905;22;20055;-66
2022/02/28 02:34:25;;;;;;;6.18;3.47;;;5.30;99.90;;;;;;5165033;22;20008;-66
2022/02/28 02:36:26;;;;;;;8.93;3.50;;;5.30;99.90;;;;;;5164535;22;20023;-66
2022/02/28 02:38:27;;;;;;;7.03;3.90;;;5.30;99.90;;;;;;5165581;22;20502;-65
2022/02/28 02:40:28;;;;;;;7.00;3.30;;;5.20;99.90;;;;;;5164257;22;20016;-65
2022/02/28 02:42:29;;;;;;;6.22;3.60;;;5.30;99.90;;;;;;5165223;22;20012;-65
2022/02/28 02:44:33;;;;;;;6.15;3.35;;;5.30;99.90;;;;;;5165407;22;20082;-65
2022/02/28 02:46:44;;;;;;;8.23;3.28;;;5.40;99.90;;;;;;5163915;22;20008;-65
2022/02/28 02:48:45;;;;;;;7.57;3.80;;;5.40;99.90;;;;;;5163466;22;20087;-65
2022/02/28 02:50:46;;;;;;;6.90;3.50;;;5.40;99.90;;;;;;5163407;22;20016;-65
2022/02/28 02:52:47;;;;;;;10.20;4.15;;;5.30;99.90;;;;;;5163683;22;20083;-65
2022/02/28 02:54:47;;;;;;;7.78;3.10;;;5.30;99.90;;;;;;5163415;22;20367;-67
2022/02/28 02:56:48;;;;;;;7.60;3.50;;;5.40;99.90;;;;;;5163243;22;20026;-66
2022/02/28 02:58:48;;;;;;;4.35;2.97;;;5.30;99.90;;;;;;5163695;22;20042;-67
2022/02/28 03:00:52;;;;;;;6.90;3.55;;;5.30;99.90;;;;;;5162955;22;20090;-66
2022/02/28 03:02:53;;;;;;;6.90;3.70;;;5.40;99.90;;;;;;5162878;22;20004;-66
2022/02/28 03:04:54;;;;;;;4.38;2.78;;;5.30;99.90;;;;;;5150105;22;20012;-66
2022/02/28 03:06:55;;;;;;;6.88;3.30;;;5.30;99.90;;;;;;5148557;22;20008;-65
2022/02/28 03:08:55;;;;;;;7.82;3.97;;;5.40;99.90;;;;;;5163184;22;20436;-66
2022/02/28 03:10:56;;;;;;;5.30;2.88;;;5.40;99.90;;;;;;5164546;22;20091;-66
2022/02/28 03:12:56;;;;;;;5.22;2.97;;;5.40;99.90;;;;;;5164785;22;20012;-65
2022/02/28 03:14:57;;;;;;;7.70;3.30;;;5.40;99.90;;;;;;5164833;22;20012;-65
2022/02/28 03:16:58;;;;;;;6.70;3.38;;;5.40;99.90;;;;;;5163941;22;20020;-65
2022/02/28 03:18:58;;;;;;;5.30;3.22;;;5.40;99.90;;;;;;5165003;22;20486;-65
2022/02/28 03:20:59;;;;;;;6.47;3.08;;;5.40;99.90;;;;;;5164143;22;20500;-66
2022/02/28 03:22:59;;;;;;;6.85;3.50;;;5.40;99.90;;;;;;5165078;22;20012;-65
2022/02/28 03:25:00;;;;;;;6.32;3.47;;;5.40;99.90;;;;;;5164596;22;20043;-66
2022/02/28 03:27:00;;;;;;;6.32;3.85;;;5.40;99.90;;;;;;5164221;22;20039;-66
2022/02/28 03:29:01;;;;;;;8.25;3.50;;;5.40;99.90;;;;;;5164906;22;20444;-65
2022/02/28 03:31:02;;;;;;;7.90;3.58;;;5.40;99.90;;;;;;5163992;22;20057;-65
2022/02/28 03:33:03;;;;;;;7.30;3.63;;;5.40;99.90;;;;;;5165054;22;20012;-66
2022/02/28 03:35:04;;;;;;;4.72;3.17;;;5.40;99.90;;;;;;5164464;22;20008;-67
2022/02/28 03:37:05;;;;;;;6.30;3.25;;;5.40;99.90;;;;;;5164044;22;20005;-65
2022/02/28 03:39:06;;;;;;;6.45;3.38;;;5.40;99.90;;;;;;5164831;22;20001;-66
2022/02/28 03:41:06;;;;;;;6.80;3.20;;;5.40;99.90;;;;;;5164795;22;20008;-65
2022/02/28 03:43:07;;;;;;;5.90;3.35;;;5.30;99.90;;;;;;5149416;22;20444;-66
2022/02/28 03:45:08;;;;;;;5.90;3.40;;;5.30;99.90;;;;;;5162704;22;20331;-66
2022/02/28 03:47:09;;;;;;;6.20;3.38;;;5.30;99.90;;;;;;5159026;22;20004;-65
2022/02/28 03:49:09;;;;;;;5.57;2.88;;;5.20;99.90;;;;;;5165750;22;20038;-65
2022/02/28 03:51:11;;;;;;;5.97;3.38;;;5.20;99.90;;;;;;5165088;22;20332;-66
2022/02/28 03:53:11;;;;;;;5.88;3.35;;;5.20;99.90;;;;;;5165819;22;20425;-65
2022/02/28 03:55:12;;;;;;;6.30;3.70;;;5.20;99.90;;;;;;5164801;22;20015;-66
2022/02/28 03:57:12;;;;;;;6.28;3.30;;;5.20;99.90;;;;;;5165481;22;20057;-65
2022/02/28 03:59:13;;;;;;;6.28;3.83;;;5.10;99.90;;;;;;5165379;22;20416;-65
2022/02/28 04:01:14;;;;;;;6.07;3.80;;;5.10;99.90;;;;;;5164639;22;20087;-66
2022/02/28 04:03:15;;;;;;;6.35;3.33;;;5.10;99.90;;;;;;5165630;22;20004;-66
2022/02/28 04:05:17;;;;;;;5.68;2.95;;;5.00;99.90;;;;;;5164383;22;20041;-66
2022/02/28 04:07:17;;;;;;;7.78;3.42;;;5.00;99.90;;;;;;5163467;23;20123;-65
2022/02/28 04:09:18;;;;;;;5.65;3.50;;;4.90;99.90;;;;;;5165516;22;20008;-65
2022/02/28 04:11:19;;;;;;;8.40;3.50;;;4.90;99.90;;;;;;5164417;22;20016;-66
2022/02/28 04:13:19;;;;;;;5.88;3.63;;;4.90;99.90;;;;;;5165452;22;20012;-65
2022/02/28 04:15:20;;;;;;;7.05;3.35;;;4.90;99.90;;;;;;5164272;22;20012;-66
2022/02/28 04:17:21;;;;;;;7.82;3.70;;;4.80;99.90;;;;;;5164868;22;20011;-67
2022/02/28 04:19:21;;;;;;;7.68;4.03;;;4.80;99.90;;;;;;5167079;22;20016;-65
2022/02/28 04:21:22;;;;;;;6.90;3.83;;;4.80;99.90;;;;;;5166286;22;20016;-65
2022/02/28 04:23:23;;;;;;;7.97;3.95;;;4.80;99.90;;;;;;5166978;22;20012;-66
2022/02/28 04:25:23;;;;;;;6.22;3.97;;;4.80;99.90;;;;;;5165821;22;20046;-66
2022/02/28 04:27:24;;;;;;;8.13;4.20;;;4.70;99.90;;;;;;5166770;22;20420;-65
2022/02/28 04:29:25;;;;;;;8.10;4.22;;;4.70;99.90;;;;;;5166646;22;20020;-65
2022/02/28 04:31:26;;;;;;;6.82;3.97;;;4.70;99.90;;;;;;5165550;22;20024;-65
2022/02/28 04:33:26;;;;;;;7.40;3.83;;;4.70;99.90;;;;;;5166700;22;20313;-65
2022/02/28 04:35:27;;;;;;;5.35;3.88;;;4.70;99.90;;;;;;5165458;22;20012;-65
2022/02/28 04:37:28;;;;;;;7.55;4.45;;;4.60;99.90;;;;;;5166515;22;20032;-65
2022/02/28 04:39:28;;;;;;;6.57;4.18;;;4.60;99.90;;;;;;5166435;22;20092;-65
2022/02/28 04:41:29;;;;;;;8.00;4.20;;;4.60;99.90;;;;;;5165615;22;20343;-65
2022/02/28 04:43:29;;;;;;;7.15;4.10;;;4.60;99.90;;;;;;5165988;22;20076;-66
2022/02/28 04:45:30;;;;;;;8.48;4.22;;;4.50;99.90;;;;;;5165526;22;20017;-65
2022/02/28 04:47:31;;;;;;;7.45;4.43;;;4.50;99.90;;;;;;5166163;22;20223;-65
2022/02/28 04:49:32;;;;;;;6.10;3.95;;;4.50;99.90;;;;;;5166348;22;20017;-65
2022/02/28 04:51:32;;;;;;;8.27;4.03;;;4.50;99.90;;;;;;5164899;22;20095;-65
2022/02/28 04:53:33;;;;;;;5.97;3.85;;;4.50;99.90;;;;;;5165925;22;20091;-65
2022/02/28 04:55:34;;;;;;;6.32;3.85;;;4.50;99.90;;;;;;5165560;22;20040;-65
2022/02/28 04:57:44;;;;;;;7.28;3.97;;;4.40;99.90;;;;;;5164967;22;20058;-65
2022/02/28 04:59:46;;;;;;;6.38;3.88;;;4.40;99.90;;;;;;5164931;22;20031;-65
2022/02/28 05:01:47;;;;;;;5.80;3.77;;;4.40;99.90;;;;;;5163238;22;20012;-65
2022/02/28 05:03:47;;;;;;;6.65;4.45;;;4.40;99.90;;;;;;5164565;22;20554;-65
2022/02/28 05:05:49;;;;;;;5.88;3.67;;;4.30;99.90;;;;;;5163592;22;20008;-65
2022/02/28 05:07:49;;;;;;;7.30;4.15;;;4.30;99.90;;;;;;5164527;22;20077;-66
2022/02/28 05:09:50;;;;;;;5.68;3.75;;;4.30;99.90;;;;;;5164638;22;20020;-65
2022/02/28 05:11:50;;;;;;;7.70;4.80;;;4.30;99.90;;;;;;5163770;22;20051;-66
2022/02/28 05:13:51;;;;;;;7.88;4.80;;;4.30;99.90;;;;;;5164310;22;20012;-67
2022/02/28 05:15:52;;;;;;;5.78;3.97;;;4.20;99.90;;;;;;5165972;22;20062;-66
2022/02/28 05:17:53;;;;;;;7.75;4.13;;;4.20;99.90;;;;;;5166343;22;20013;-65
2022/02/28 05:19:53;;;;;;;7.55;4.60;;;4.20;99.90;;;;;;5166729;22;20466;-66
2022/02/28 05:21:54;;;;;;;9.70;4.63;;;4.20;99.90;;;;;;5164624;22;20059;-65
2022/02/28 05:23:55;;;;;;;11.98;5.03;;;4.20;99.90;;;;;;5165784;22;20012;-65
2022/02/28 05:25:56;;;;;;;8.40;4.20;;;4.10;99.90;;;;;;5165262;22;20347;-65
2022/02/28 05:27:56;;;;;;;7.43;4.50;;;4.10;99.90;;;;;;5165996;22;20055;-65
2022/02/28 05:29:57;;;;;;;9.40;4.78;;;4.10;99.90;;;;;;5165430;22;20008;-65
2022/02/28 05:31:57;;;;;;;9.60;4.72;;;4.10;99.90;;;;;;5164856;22;20344;-65
2022/02/28 05:33:58;;;;;;;6.82;4.35;;;4.10;99.90;;;;;;5165874;22;20034;-65
2022/02/28 05:35:58;;;;;;;6.35;3.80;;;4.10;99.90;;;;;;5164735;22;20050;-65
2022/02/28 05:37:59;;;;;;;7.15;4.20;;;4.10;99.90;;;;;;5166006;22;20012;-65
2022/02/28 05:40:00;;;;;;;6.30;3.90;;;4.00;99.90;;;;;;5162333;22;20348;-65
2022/02/28 05:42:00;;;;;;;7.25;4.70;;;4.00;99.90;;;;;;5161348;22;20032;-65
2022/02/28 05:44:01;;;;;;;9.85;4.88;;;4.00;99.90;;;;;;5163644;22;20463;-65
2022/02/28 05:46:02;;;;;;;8.48;4.85;;;4.00;99.90;;;;;;5163020;22;20104;-65
2022/02/28 05:48:06;;;;;;;7.85;4.53;;;4.00;99.90;;;;;;5163059;22;20019;-66
2022/02/28 05:50:08;;;;;;;7.63;4.22;;;4.00;99.90;;;;;;5163569;22;20332;-65
2022/02/28 05:52:08;;;;;;;7.28;4.35;;;4.00;99.90;;;;;;5163147;22;20019;-65
2022/02/28 05:54:09;;;;;;;7.03;4.45;;;4.00;99.90;;;;;;5163630;22;20099;-65
2022/02/28 05:56:10;;;;;;;8.82;5.00;;;4.00;99.90;;;;;;5124636;22;20328;-66
2022/02/28 05:58:10;;;;;;;10.13;5.35;;;4.00;99.90;;;;;;5185762;22;20199;-65
2022/02/28 06:00:11;;;;;;;8.23;4.90;;;3.90;99.90;;;;;;5162004;22;20126;-66
2022/02/28 06:02:12;;;;;;;8.18;4.68;;;3.90;99.90;;;;;;5161913;22;20012;-65
2022/02/28 06:04:13;;;;;;;7.35;4.53;;;4.00;99.90;;;;;;5162762;22;20023;-66
2022/02/28 06:06:14;;;;;;;8.07;4.85;;;3.90;99.90;;;;;;5162071;22;20011;-65
2022/02/28 06:08:14;;;;;;;9.65;4.88;;;3.90;99.90;;;;;;5163008;22;20335;-65
2022/02/28 06:10:16;;;;;;;8.48;4.45;;;3.80;99.90;;;;;;5161694;22;20020;-66
2022/02/28 06:12:16;;;;;;;7.80;4.32;;;3.90;99.90;;;;;;5162773;22;20035;-65
2022/02/28 06:14:17;;;;;;;9.20;4.07;;;4.00;99.90;;;;;;5162498;22;20012;-65
2022/02/28 06:16:18;;;;;;;6.85;4.10;;;4.00;99.90;;;;;;5161666;22;20015;-64
2022/02/28 06:18:18;;;;;;;9.07;4.60;;;4.00;99.90;;;;;;5162479;22;20020;-64
2022/02/28 06:20:19;;;;;;;9.57;4.00;;;4.00;99.90;;;;;;5161552;22;20011;-65
2022/02/28 06:22:21;;;;;;;8.23;4.05;;;4.00;99.90;;;;;;5161299;22;20016;-64
2022/02/28 06:24:21;;;;;;;7.15;4.30;;;4.00;99.90;;;;;;5161811;22;20044;-65
2022/02/28 06:26:22;;;;;;;8.80;4.38;;;4.00;99.90;;;;;;5162306;22;20001;-65
2022/02/28 06:28:22;;;;;;;8.02;4.32;;;4.10;99.90;;;;;;5163498;22;20466;-65
2022/02/28 06:30:23;;;;;;;7.60;4.70;;;4.10;99.90;;;;;;5162368;22;20462;-64
2022/02/28 06:32:24;;;;;;;7.65;4.38;;;4.10;99.90;;;;;;5162299;22;20415;-65
2022/02/28 06:34:26;;;;;;;9.95;4.60;;;4.10;99.90;;;;;;5163065;22;20008;-65
2022/02/28 06:36:27;;;;;;;10.18;4.45;;;4.10;99.90;;;;;;5162443;22;20016;-64
2022/02/28 06:38:27;;;;;;;7.82;4.28;;;4.00;99.90;;;;;;5163309;22;20324;-64
2022/02/28 06:40:28;;;;;;;7.32;4.28;;;4.00;99.90;;;;;;5162240;22;20020;-64
2022/02/28 06:42:28;;;;;;;9.50;5.07;;;4.00;99.90;;;;;;5161567;22;20019;-65
2022/02/28 06:44:29;;;;;;;7.88;4.82;;;4.00;99.90;;;;;;5162632;22;20440;-64
2022/02/28 06:46:30;;;;;;;9.10;5.05;;;4.00;99.90;;;;;;5161350;22;20065;-65
2022/02/28 06:48:30;;;;;;;8.05;4.80;;;4.00;99.90;;;;;;5161841;22;20436;-64
2022/02/28 06:50:31;;;;;;;9.13;4.90;;;4.00;99.90;;;;;;5161418;22;21026;-65
2022/02/28 06:52:32;;;;;;;9.57;4.80;;;4.00;99.90;;;;;;5161977;22;20012;-64
2022/02/28 06:54:33;;;;;;;9.18;4.97;;;4.00;99.90;;;;;;5162238;22;20012;-65
2022/02/28 06:56:33;;;;;;;7.50;4.85;;;4.00;99.90;;;;;;5161661;22;20379;-65
2022/02/28 06:58:34;;;;;;;11.80;5.15;;;4.10;99.90;;;;;;5161874;22;20008;-64
2022/02/28 07:00:35;;;;;;;10.38;5.22;;;4.00;99.90;;;;;;5160393;22;20345;-65
2022/02/28 07:02:36;;;;;;;10.50;5.43;;;4.10;99.90;;;;;;5161572;22;20495;-66
2022/02/28 07:04:36;;;;;;;11.88;5.57;;;4.20;99.90;;;;;;5161711;22;20031;-65
2022/02/28 07:06:38;;;;;;;10.25;5.65;;;4.40;99.90;;;;;;5160579;22;20064;-65
2022/02/28 07:08:39;;;;;;;10.07;5.07;;;4.60;99.90;;;;;;5161697;22;20004;-65
2022/02/28 07:10:41;;;;;;;9.23;5.05;;;4.80;99.90;;;;;;5161856;22;20027;-65
2022/02/28 07:12:42;;;;;;;7.10;4.70;;;4.80;99.90;;;;;;5162141;22;20010;-65
2022/02/28 07:14:42;;;;;;;10.43;5.05;;;4.90;99.90;;;;;;5162811;22;20024;-64
2022/02/28 07:16:43;;;;;;;10.55;5.05;;;4.90;99.90;;;;;;5161533;22;20332;-65
2022/02/28 07:18:44;;;;;;;8.30;5.25;;;4.90;99.90;;;;;;5185250;22;20008;-65
2022/02/28 07:20:44;;;;;;;8.68;5.35;;;4.80;99.90;;;;;;5161871;22;20019;-65
2022/02/28 07:22:45;;;;;;;8.90;4.53;;;4.80;99.90;;;;;;5162034;22;20062;-64
2022/02/28 07:24:46;;;;;;;9.13;4.80;;;5.00;99.90;;;;;;5162027;22;20083;-65
2022/02/28 07:26:46;;;;;;;9.77;5.20;;;5.10;99.90;;;;;;5161023;22;20008;-65
2022/02/28 07:28:47;;;;;;;9.40;4.72;;;5.40;99.90;;;;;;5162418;22;20502;-65
2022/02/28 07:30:48;;;;;;;10.43;5.13;;;5.60;99.90;;;;;;5161048;22;20044;-65
2022/02/28 07:32:48;;;;;;;9.95;5.50;;;5.90;99.90;;;;;;5161451;22;20012;-65
2022/02/28 07:34:49;;;;;;;9.55;5.43;;;6.10;99.90;;;;;;5161933;22;20004;-65
2022/02/28 07:36:50;;;;;;;10.70;5.40;;;6.40;99.90;;;;;;5160757;22;20087;-65
2022/02/28 07:38:50;;;;;;;10.13;5.38;;;6.50;99.90;;;;;;5159312;22;20008;-65
2022/02/28 07:40:51;;;;;;;8.18;5.40;;;6.90;99.90;;;;;;5159041;22;20097;-65
2022/02/28 07:42:51;;;;;;;10.13;5.68;;;7.10;99.90;;;;;;5161220;22;20019;-66
2022/02/28 07:44:52;;;;;;;10.15;5.80;;;7.20;99.90;;;;;;5160744;22;20015;-65
2022/02/28 07:46:52;;;;;;;10.93;5.50;;;7.50;99.90;;;;;;5159930;22;20328;-66
2022/02/28 07:48:53;;;;;;;9.20;4.80;;;7.80;99.90;;;;;;5160927;22;20031;-65
2022/02/28 07:50:54;;;;;;;10.00;5.70;;;8.00;99.90;;;;;;5161614;22;20024;-66
2022/02/28 07:52:54;;;;;;;7.63;4.90;;;8.00;99.90;;;;;;5162086;22;20008;-65
2022/02/28 07:54:55;;;;;;;8.98;4.53;;;8.30;99.90;;;;;;5162614;22;20008;-66
2022/02/28 07:56:55;;;;;;;8.27;4.50;;;8.50;99.90;;;;;;5161651;22;20008;-65
2022/02/28 07:58:56;;;;;;;8.88;4.72;;;8.70;99.90;;;;;;5161963;22;20027;-65
2022/02/28 08:00:57;;;;;;;7.53;4.53;;;9.10;99.90;;;;;;5160470;22;20019;-65
2022/02/28 08:02:57;;;;;;;9.55;5.43;;;9.30;99.90;;;;;;5184780;22;20094;-66
2022/02/28 08:04:58;;;;;;;8.68;5.07;;;9.60;99.90;;;;;;5162373;22;20147;-65
2022/02/28 08:06:59;;;;;;;7.28;4.90;;;9.50;95.50;;;;;;5160789;22;20012;-66
2022/02/28 08:09:00;;;;;;;7.57;4.82;;;9.80;98.50;;;;;;5162345;22;20012;-65
2022/02/28 08:11:00;;;;;;;7.13;4.80;;;10.10;97.10;;;;;;5161072;22;20051;-65
2022/02/28 08:13:02;;;;;;;10.63;5.55;;;10.50;99.00;;;;;;5161962;22;20506;-66
2022/02/28 08:15:03;;;;;;;6.85;4.60;;;10.70;97.00;;;;;;5162283;22;20012;-66
2022/02/28 08:17:03;;;;;;;8.48;4.88;;;10.70;92.00;;;;;;5161290;22;20027;-65
2022/02/28 08:19:04;;;;;;;8.65;4.88;;;10.70;91.10;;;;;;5160024;22;20012;-66
2022/02/28 08:21:05;;;;;;;6.80;4.70;;;11.10;94.30;;;;;;5159463;22;20012;-65
2022/02/28 08:23:05;;;;;;;7.43;4.72;;;11.40;90.90;;;;;;5160699;22;20416;-65
2022/02/28 08:25:06;;;;;;;8.13;4.40;;;11.70;91.30;;;;;;5160576;22;20000;-67
2022/02/28 08:27:07;;;;;;;9.00;4.97;;;11.70;88.00;;;;;;5162157;22;20009;-65
2022/02/28 08:29:08;;;;;;;6.47;4.30;;;12.00;83.80;;;;;;5162355;22;20099;-65
2022/02/28 08:31:09;;;;;;;9.20;4.63;;;12.00;81.00;;;;;;5160914;22;20028;-65
2022/02/28 08:33:09;;;;;;;7.03;4.68;;;12.10;85.60;;;;;;5162784;22;20008;-65
2022/02/28 08:35:10;;;;;;;6.82;3.78;;;12.20;78.60;;;;;;5162346;22;20020;-64
2022/02/28 08:37:11;;;;;;;8.68;4.50;;;12.30;83.50;;;;;;5163424;22;20031;-64
2022/02/28 08:39:11;;;;;;;8.15;4.53;;;12.40;81.40;;;;;;5163118;22;20058;-63
2022/02/28 08:41:12;;;;;;;11.40;4.88;;;12.20;74.50;;;;;;5161916;22;20352;-65
2022/02/28 08:43:13;;;;;;;9.15;4.72;;;12.10;77.10;;;;;;5159938;23;20058;-66
2022/02/28 08:45:13;;;;;;;7.22;4.20;;;11.90;74.40;;;;;;5161843;22;20087;-66
2022/02/28 08:47:14;;;;;;;6.55;4.32;;;11.90;80.00;;;;;;5162292;22;20019;-66
2022/02/28 08:49:17;;;;;;;8.23;4.40;;;11.90;79.30;;;;;;5162289;22;20016;-64
2022/02/28 08:51:17;;;;;;;8.30;4.88;;;11.80;76.60;;;;;;5160751;22;20428;-63
2022/02/28 08:53:18;;;;;;;8.13;4.72;;;11.70;76.30;;;;;;5162136;22;20012;-63
2022/02/28 08:55:19;;;;;;;7.78;4.75;;;11.40;74.00;;;;;;5161801;22;20013;-63
2022/02/28 08:57:21;;;;;;;11.38;5.30;;;11.30;76.40;;;;;;5162560;22;20020;-63
2022/02/28 08:59:22;;;;;;;7.80;4.85;;;11.20;76.80;;;;;;5162017;22;20027;-63
2022/02/28 09:01:22;;;;;;;8.35;4.68;;;11.00;81.00;;;;;;5160757;22;20440;-63
2022/02/28 09:03:23;;;;;;;7.43;4.88;;;10.90;77.20;;;;;;5162559;22;20000;-63
2022/02/28 09:05:23;;;;;;;10.35;5.55;;;10.90;79.50;;;;;;5162490;22;20474;-63
2022/02/28 09:07:24;;;;;;;8.45;4.70;;;10.60;75.80;;;;;;5162437;22;20031;-63
2022/02/28 09:09:25;;;;;;;9.23;5.63;;;10.70;81.70;;;;;;5162972;22;20012;-63
2022/02/28 09:11:26;;;;;;;8.10;5.00;;;10.40;77.20;;;;;;5160623;22;20023;-63
2022/02/28 09:13:26;;;;;;;8.73;5.50;;;10.60;84.40;;;;;;5161763;22;20023;-63
2022/02/28 09:15:27;;;;;;;7.85;5.20;;;10.50;79.80;;;;;;5161977;22;20035;-63
2022/02/28 09:17:30;;;;;;;11.35;5.80;;;10.50;78.00;;;;;;5162985;22;20016;-63
2022/02/28 09:19:31;;;;;;;9.38;5.35;;;10.50;79.10;;;;;;5162156;22;20058;-63
2022/02/28 09:21:31;;;;;;;9.35;5.82;;;10.40;77.40;;;;;;5160567;22;20379;-63
2022/02/28 09:23:32;;;;;;;8.45;5.35;;;10.30;79.00;;;;;;5161979;22;20020;-63
2022/02/28 09:25:33;;;;;;;9.23;5.47;;;10.20;78.90;;;;;;5161518;22;20332;-63
2022/02/28 09:27:34;;;;;;;9.60;5.65;;;10.20;81.20;;;;;;5162233;22;20012;-63
2022/02/28 09:29:34;;;;;;;9.60;5.45;;;10.20;80.10;;;;;;5162048;22;20440;-63
2022/02/28 09:31:35;;;;;;;7.65;5.30;;;10.30;79.30;;;;;;5160563;22;20032;-63
2022/02/28 09:33:36;;;;;;;11.45;6.13;;;10.30;82.90;;;;;;5161362;22;20040;-63
2022/02/28 09:35:37;;;;;;;9.15;5.30;;;10.20;78.60;;;;;;5161213;22;20396;-63
2022/02/28 09:37:37;;;;;;;7.63;5.07;;;10.30;81.90;;;;;;5161756;22;20014;-62
2022/02/28 09:39:38;;;;;;;11.60;5.95;;;10.50;83.50;;;;;;5161704;22;20012;-63
2022/02/28 09:41:39;;;;;;;8.32;5.70;;;10.50;80.40;;;;;;5160532;22;20450;-63
2022/02/28 09:43:41;;;;;;;10.90;5.85;;;10.50;80.50;;;;;;5161268;22;20019;-62
2022/02/28 09:45:43;;;;;;;10.40;5.88;;;10.50;83.30;;;;;;5159046;23;20067;-63
2022/02/28 09:47:43;;;;;;;9.68;6.10;;;10.40;77.90;;;;;;5162081;22;20015;-63
2022/02/28 09:49:44;;;;;;;12.88;6.32;;;10.40;77.20;;;;;;5162341;22;20479;-63
2022/02/28 09:51:45;;;;;;;11.93;5.78;;;10.30;78.30;;;;;;5160960;22;20016;-62
2022/02/28 09:53:46;;;;;;;12.13;6.20;;;10.40;78.70;;;;;;5161596;22;20079;-63
2022/02/28 09:55:47;;;;;;;9.73;5.93;;;10.30;78.20;;;;;;5161306;22;20460;-63
2022/02/28 09:57:51;;;;;;;11.65;5.38;;;10.40;79.20;;;;;;5162150;22;20313;-63
2022/02/28 09:59:52;;;;;;;8.75;5.20;;;10.50;83.10;;;;;;5161013;22;20363;-62
2022/02/28 10:01:53;;;;;;;11.52;6.80;;;10.50;80.00;;;;;;5160293;22;20027;-64
2022/02/28 10:03:53;;;;;;;9.82;5.82;;;10.50;79.60;;;;;;5162158;22;20075;-63
2022/02/28 10:05:59;;;;;;;11.55;5.97;;;10.60;77.90;;;;;;5160909;22;20375;-63
2022/02/28 10:08:06;;;;;;;11.57;6.50;;;10.60;78.60;;;;;;5162139;22;20042;-63
2022/02/28 10:10:12;;;;;;;9.10;5.88;;;10.70;81.90;;;;;;5160675;22;20012;-63
2022/02/28 10:12:13;;;;;;;10.45;6.00;;;10.60;78.70;;;;;;5160745;22;20024;-63
2022/02/28 10:14:14;;;;;;;11.30;6.38;;;10.60;79.40;;;;;;5158939;23;20301;-63
2022/02/28 10:16:32;;;;;;;11.82;6.28;;;10.70;78.00;;;;;;5158571;23;20059;-62
2022/02/28 10:18:36;;;;;;;11.80;6.32;;;10.60;74.60;;;;;;5161148;22;20012;-62
2022/02/28 10:20:38;;;;;;;10.90;6.78;;;10.60;74.80;;;;;;5160237;22;20011;-62
2022/02/28 10:22:39;;;;;;;10.00;6.05;;;10.50;75.00;;;;;;5160651;22;20024;-62
2022/02/28 10:24:42;;;;;;;10.23;5.63;;;10.60;77.50;;;;;;5161272;22;20486;-62
2022/02/28 10:26:46;;;;;;;10.43;6.13;;;10.60;74.40;;;;;;5160606;22;20015;-63
2022/02/28 10:28:46;;;;;;;9.98;6.00;;;10.60;77.30;;;;;;5161694;22;20313;-62
2022/02/28 10:30:57;;;;;;;10.43;5.80;;;10.70;79.30;;;;;;5159633;22;20123;-63
2022/02/28 10:33:09;;;;;;;11.18;5.90;;;10.80;77.70;;;;;;5160287;22;20008;-65
2022/02/28 10:37:29;;;;;;;10.25;6.07;;;11.00;76.70;;;;;;5160758;22;20008;-63
2022/02/28 10:39:34;;;;;;;11.48;6.43;;;11.00;76.80;;;;;;5160820;22;20008;-63